Terminal Aerodrome Forecast
Issued by NWS

Home | Current Version | Previous Version | Text Only | Print | Product List | Glossary On
Versions: 1 2 3 4 5 6 7 8 9 10 11 12 13 14 15
000
FTUS43 KICT 300520
TAFSLN
TAF
KSLN 300520Z 3006/3106 VRB05KT P6SM SCT100 BKN250
     FM301600 25009KT P6SM SCT250
     FM302200 32011KT P6SM SCT080
     FM310300 07008KT P6SM SCT200=

USA.gov is the U.S. government's official web portal to all federal, state and local government web resources and services.